This is the latest recevied weather packets stored in our database for station/object VY2CRA-4. If no packets are shown the sender has not sent any weather packets the latest 10 day(s).
| Time | Temp. | Humidity | Pressure | Rain* | Wind** | Luminosity | Snow |
|---|---|---|---|---|---|---|---|
| 1787595503 | 33.89° C | 22% | 1011.2 hPa | 0 mm | - | - | - |
| 1787593102 | 33.33° C | 26% | 1011.1 hPa | 0 mm | - | - | - |
| 1787589499 | 32.22° C | 29% | 1011.6 hPa | 0 mm | - | - | - |
| 1787587097 | 34.44° C | 21% | 1012 hPa | 0 mm | - | - | - |
| 1787575088 | 30.56° C | 35% | 1011.2 hPa | 0 mm | - | - | - |
| 1787572687 | 33.33° C | 20% | 1011.2 hPa | 0 mm | - | - | - |
| 1787571485 | 33.89° C | 20% | 1011 hPa | 0 mm | - | - | - |
| 1787570285 | 32.78° C | 25% | 1011.3 hPa | 0 mm | - | - | - |
| 1787569083 | 30° C | 38% | 1011.2 hPa | 0 mm | - | - | - |
| 1787567882 | 27.78° C | 45% | 1011.3 hPa | 0 mm | - | - | - |
| 1787566681 | 27.22° C | 45% | 1011.4 hPa | 0 mm | - | - | - |
| 1787565480 | 27.22° C | 46% | 1011.4 hPa | 0 mm | - | - | - |
| 1787564279 | 27.22° C | 46% | 1011.2 hPa | 0 mm | - | - | - |
| 1787561877 | 27.22° C | 46% | 1010.8 hPa | 0 mm | - | - | - |
| 1787560676 | 27.22° C | 46% | 1010.5 hPa | 0 mm | - | - | - |
| 1787559475 | 27.22° C | 46% | 1010.3 hPa | 0 mm | - | - | - |
| 1787558274 | 27.22° C | 47% | 1010.1 hPa | 0 mm | - | - | - |
| 1787557074 | 27.22° C | 47% | 1010.2 hPa | 0 mm | - | - | - |
| 1787555873 | 27.22° C | 48% | 1010.2 hPa | 0 mm | - | - | - |
| 1787554672 | 27.22° C | 48% | 1009.9 hPa | 0 mm | - | - | - |
| 1787553471 | 27.22° C | 48% | 1009.9 hPa | 0 mm | - | - | - |
| 1787552270 | 27.22° C | 49% | 1009.8 hPa | 0 mm | - | - | - |
| 1787551069 | 27.22° C | 49% | 1009.7 hPa | 0 mm | - | - | - |
| 1787549868 | 27.22° C | 49% | 1009.9 hPa | 0 mm | - | - | - |
| 1787548667 | 27.78° C | 49% | 1009.9 hPa | 0 mm | - | - | - |
* Rain since midnight (hover to see other rain measurements)
** Current wind speed in m/s (hover to see current wind gust speed)